createdAt,value
2017-05-17T00:00:05.266Z,1023.13
2017-05-17T00:01:05.906Z,1023.10
2017-05-17T00:02:06.546Z,1023.09
2017-05-17T00:03:07.188Z,1023.04
2017-05-17T00:04:07.828Z,1022.98
2017-05-17T00:05:08.568Z,1022.97
2017-05-17T00:06:09.209Z,1022.91
2017-05-17T00:07:09.847Z,1022.92
2017-05-17T00:08:10.490Z,1022.90
2017-05-17T00:09:11.132Z,1022.98
2017-05-17T00:10:11.768Z,1022.98
2017-05-17T00:11:12.409Z,1022.98
2017-05-17T00:12:13.049Z,1022.97
2017-05-17T00:13:13.943Z,1023.09
2017-05-17T00:14:14.585Z,1023.11
2017-05-17T00:15:15.221Z,1023.09
2017-05-17T00:16:15.861Z,1023.11
2017-05-17T00:17:16.503Z,1023.16
2017-05-17T00:18:17.143Z,1023.08
2017-05-17T00:19:17.786Z,1023.09
2017-05-17T00:20:18.430Z,1023.07
2017-05-17T00:21:19.076Z,1023.03
2017-05-17T00:22:19.915Z,1023.00
2017-05-17T00:23:20.549Z,1023.00
2017-05-17T00:24:21.193Z,1023.07
2017-05-17T00:25:21.838Z,1023.00
2017-05-17T00:26:22.475Z,1022.95
2017-05-17T00:27:23.117Z,1022.93
2017-05-17T00:28:23.759Z,1022.88
2017-05-17T00:29:24.394Z,1022.83
2017-05-17T00:30:25.238Z,1022.86
2017-05-17T00:31:25.878Z,1022.74
2017-05-17T00:32:26.514Z,1022.82
2017-05-17T00:33:27.156Z,1022.79
2017-05-17T00:34:27.794Z,1022.81
2017-05-17T00:35:28.434Z,1022.81
2017-05-17T00:36:29.069Z,1022.84
2017-05-17T00:37:29.711Z,1022.85
2017-05-17T00:38:30.499Z,1022.87
2017-05-17T00:39:31.144Z,1022.91
2017-05-17T00:40:31.786Z,1022.88
2017-05-17T00:41:32.428Z,1022.80
2017-05-17T00:42:33.063Z,1022.78
2017-05-17T00:43:33.704Z,1022.66
2017-05-17T00:44:34.342Z,1022.69
2017-05-17T00:45:34.989Z,1022.54
2017-05-17T00:46:35.827Z,1022.57
2017-05-17T00:47:36.464Z,1022.51
2017-05-17T00:48:37.104Z,1022.57
2017-05-17T00:49:37.747Z,1022.56
2017-05-17T00:50:38.390Z,1022.57
2017-05-17T00:51:39.032Z,1022.59
2017-05-17T00:52:39.673Z,1022.56
2017-05-17T00:53:40.316Z,1022.61
2017-05-17T00:54:40.959Z,1022.60
2017-05-17T00:55:41.802Z,1022.61
2017-05-17T00:56:42.442Z,1022.52
2017-05-17T00:57:43.083Z,1022.57
2017-05-17T00:58:43.676Z,1022.51
2017-05-17T00:59:44.315Z,1022.52
2017-05-17T01:00:44.958Z,1022.49
2017-05-17T01:01:45.599Z,1022.44
2017-05-17T01:02:46.241Z,1022.38
2017-05-17T01:03:47.035Z,1022.38
2017-05-17T01:04:47.675Z,1022.27
2017-05-17T01:05:48.321Z,1022.26
2017-05-17T01:06:48.959Z,1022.18
2017-05-17T01:07:49.602Z,1022.18
2017-05-17T01:08:50.240Z,1022.11
2017-05-17T01:09:50.881Z,1022.14
2017-05-17T01:10:51.523Z,1022.20
2017-05-17T01:11:52.358Z,1022.14
2017-05-17T01:12:53.000Z,1022.20
2017-05-17T01:13:53.642Z,1022.08
2017-05-17T01:14:54.282Z,1022.06
2017-05-17T01:15:54.923Z,1022.02
2017-05-17T01:16:55.564Z,1022.01
2017-05-17T01:17:56.202Z,1022.04
2017-05-17T01:18:56.839Z,1021.88
2017-05-17T01:19:57.932Z,1021.83
2017-05-17T01:20:58.575Z,1021.88
2017-05-17T01:21:59.219Z,1021.83
2017-05-17T01:22:59.857Z,1021.83
2017-05-17T01:24:00.497Z,1021.83
2017-05-17T01:25:01.139Z,1021.88
2017-05-17T01:26:01.729Z,1021.87
2017-05-17T01:27:02.373Z,1021.99
2017-05-17T01:28:03.213Z,1021.96
2017-05-17T01:29:03.853Z,1022.00
2017-05-17T01:30:04.494Z,1021.97
2017-05-17T01:31:05.136Z,1021.94
2017-05-17T01:32:05.780Z,1021.89
2017-05-17T01:33:06.421Z,1021.81
2017-05-17T01:34:07.063Z,1021.75
2017-05-17T01:35:07.702Z,1021.80
2017-05-17T01:36:08.344Z,1021.78
2017-05-17T01:37:09.282Z,1021.78
2017-05-17T01:38:09.946Z,1021.79
2017-05-17T01:39:10.568Z,1021.76
2017-05-17T01:40:11.209Z,1021.79
2017-05-17T01:41:11.849Z,1021.83
2017-05-17T01:42:12.490Z,1021.85
2017-05-17T01:43:13.125Z,1021.83
2017-05-17T01:44:13.770Z,1021.83
2017-05-17T01:45:14.713Z,1021.83
2017-05-17T01:46:15.348Z,1021.86
2017-05-17T01:47:15.983Z,1021.79
2017-05-17T01:48:16.624Z,1021.76
2017-05-17T01:49:17.263Z,1021.71
2017-05-17T01:50:17.905Z,1021.73
2017-05-17T01:51:18.542Z,1021.73
2017-05-17T01:52:19.183Z,1021.66
2017-05-17T01:53:20.127Z,1021.77
2017-05-17T01:54:20.764Z,1021.76
2017-05-17T01:55:21.404Z,1021.80
2017-05-17T01:56:22.049Z,1021.85
2017-05-17T01:57:22.688Z,1021.88
2017-05-17T01:58:23.325Z,1021.95
2017-05-17T01:59:23.966Z,1021.93
2017-05-17T02:00:24.606Z,1021.95
2017-05-17T02:01:25.400Z,1021.92
2017-05-17T02:02:26.043Z,1021.91
2017-05-17T02:03:26.678Z,1021.85
2017-05-17T02:04:27.322Z,1021.85
2017-05-17T02:05:27.964Z,1021.89
2017-05-17T02:06:28.607Z,1021.77
2017-05-17T02:07:29.245Z,1021.81
2017-05-17T02:08:29.882Z,1021.87
2017-05-17T02:09:30.521Z,1021.79
2017-05-17T02:10:31.363Z,1021.79
2017-05-17T02:11:32.009Z,1021.78
2017-05-17T02:12:32.649Z,1021.75
2017-05-17T02:13:33.283Z,1021.71
2017-05-17T02:14:33.926Z,1021.75
2017-05-17T02:15:34.568Z,1021.75
2017-05-17T02:16:35.208Z,1021.62
2017-05-17T02:17:35.849Z,1021.68
2017-05-17T02:18:36.644Z,1021.69
2017-05-17T02:19:37.285Z,1021.60
2017-05-17T02:20:37.925Z,1021.63
2017-05-17T02:21:38.568Z,1021.64
2017-05-17T02:22:39.209Z,1021.61
2017-05-17T02:23:39.849Z,1021.63
2017-05-17T02:24:40.490Z,1021.57
2017-05-17T02:25:41.128Z,1021.63
2017-05-17T02:26:41.969Z,1021.64
2017-05-17T02:27:42.609Z,1021.60
2017-05-17T02:28:43.253Z,1021.51
2017-05-17T02:29:43.899Z,1021.48
2017-05-17T02:30:44.542Z,1021.56
2017-05-17T02:31:45.188Z,1021.56
2017-05-17T02:32:45.821Z,1021.47
2017-05-17T02:33:46.464Z,1021.61
2017-05-17T02:34:47.251Z,1021.57
2017-05-17T02:35:47.892Z,1021.60
2017-05-17T02:36:48.536Z,1021.57
2017-05-17T02:37:49.178Z,1021.62
2017-05-17T02:38:49.813Z,1021.63
2017-05-17T02:39:50.455Z,1021.54
2017-05-17T02:40:51.101Z,1021.57
2017-05-17T02:41:51.742Z,1021.59
2017-05-17T02:42:52.677Z,1021.58
2017-05-17T02:43:53.318Z,1021.66
2017-05-17T02:44:53.957Z,1021.57
2017-05-17T02:45:54.599Z,1021.64
2017-05-17T02:46:55.241Z,1021.64
2017-05-17T02:47:55.878Z,1021.65
2017-05-17T02:48:56.520Z,1021.65
2017-05-17T02:49:57.163Z,1021.64
2017-05-17T02:50:57.802Z,1021.74
2017-05-17T02:51:58.649Z,1021.74
2017-05-17T02:52:59.280Z,1021.74
2017-05-17T02:53:59.915Z,1021.74
2017-05-17T02:55:00.556Z,1021.75
2017-05-17T02:56:01.198Z,1021.72
2017-05-17T02:57:01.841Z,1021.71
2017-05-17T02:58:02.480Z,1021.73
2017-05-17T02:59:03.126Z,1021.71
2017-05-17T03:00:03.960Z,1021.64
2017-05-17T03:01:04.595Z,1021.68
2017-05-17T03:02:05.237Z,1021.70
2017-05-17T03:03:05.874Z,1021.70
2017-05-17T03:04:06.512Z,1021.70
2017-05-17T03:05:07.151Z,1021.76
2017-05-17T03:06:07.823Z,1021.81
2017-05-17T03:07:08.427Z,1021.83
2017-05-17T03:08:09.267Z,1021.84
2017-05-17T03:09:09.908Z,1021.82
2017-05-17T03:10:10.554Z,1021.89
2017-05-17T03:11:11.191Z,1021.92
2017-05-17T03:12:11.828Z,1021.92
2017-05-17T03:13:12.465Z,1021.90
2017-05-17T03:14:13.105Z,1021.82
2017-05-17T03:15:13.748Z,1021.90
2017-05-17T03:16:14.592Z,1021.87
2017-05-17T03:17:15.232Z,1021.82
2017-05-17T03:18:15.869Z,1021.92
2017-05-17T03:19:16.509Z,1021.84
2017-05-17T03:20:17.151Z,1021.80
2017-05-17T03:21:17.786Z,1021.84
2017-05-17T03:22:18.430Z,1021.89
2017-05-17T03:23:19.074Z,1021.86
2017-05-17T03:24:19.712Z,1021.84
2017-05-17T03:25:20.502Z,1021.86
2017-05-17T03:26:21.145Z,1021.86
2017-05-17T03:27:21.787Z,1021.89
2017-05-17T03:28:22.429Z,1021.96
2017-05-17T03:29:23.078Z,1021.93
2017-05-17T03:30:23.706Z,1022.00
2017-05-17T03:31:24.347Z,1022.04
2017-05-17T03:32:24.984Z,1022.10
2017-05-17T03:33:25.824Z,1022.10
2017-05-17T03:34:26.466Z,1022.06
2017-05-17T03:35:27.124Z,1022.05
2017-05-17T03:36:27.747Z,1022.02
2017-05-17T03:37:28.386Z,1022.03
2017-05-17T03:38:29.027Z,1022.00
2017-05-17T03:39:29.668Z,1021.98
2017-05-17T03:40:30.308Z,1021.99
2017-05-17T03:41:31.100Z,1022.00
2017-05-17T03:42:31.741Z,1022.04
2017-05-17T03:43:32.383Z,1022.07
2017-05-17T03:44:33.025Z,1022.09
2017-05-17T03:45:33.666Z,1022.11
2017-05-17T03:46:34.309Z,1022.12
2017-05-17T03:47:34.951Z,1021.99
2017-05-17T03:48:35.596Z,1021.94
2017-05-17T03:49:36.436Z,1021.90
2017-05-17T03:50:37.078Z,1021.92
2017-05-17T03:51:37.722Z,1021.98
2017-05-17T03:52:38.359Z,1022.09
2017-05-17T03:53:38.998Z,1022.17
2017-05-17T03:54:39.642Z,1022.23
2017-05-17T03:55:40.284Z,1022.25
2017-05-17T03:56:40.922Z,1022.22
2017-05-17T03:57:41.763Z,1022.22
2017-05-17T03:58:42.406Z,1022.12
2017-05-17T03:59:43.048Z,1022.12
2017-05-17T04:00:43.692Z,1022.15
2017-05-17T04:01:44.331Z,1022.17
2017-05-17T04:02:44.973Z,1022.19
2017-05-17T04:03:45.618Z,1022.19
2017-05-17T04:04:46.253Z,1022.27
2017-05-17T04:05:46.894Z,1022.28
2017-05-17T04:06:47.738Z,1022.27
2017-05-17T04:07:48.378Z,1022.32
2017-05-17T04:08:49.022Z,1022.25
2017-05-17T04:09:49.657Z,1022.19
2017-05-17T04:10:50.299Z,1022.09
2017-05-17T04:11:50.940Z,1022.09
2017-05-17T04:12:51.583Z,1022.12
2017-05-17T04:13:52.219Z,1022.01
2017-05-17T04:14:53.058Z,1022.10
2017-05-17T04:15:53.695Z,1022.10
2017-05-17T04:16:54.338Z,1022.08
2017-05-17T04:17:54.979Z,1022.05
2017-05-17T04:18:55.622Z,1021.93
2017-05-17T04:19:56.257Z,1021.89
2017-05-17T04:20:56.893Z,1021.83
2017-05-17T04:21:57.537Z,1021.85
2017-05-17T04:22:58.398Z,1021.90
2017-05-17T04:23:59.020Z,1021.85
2017-05-17T04:24:59.660Z,1021.82
2017-05-17T04:26:00.300Z,1021.76
2017-05-17T04:27:00.944Z,1021.86
2017-05-17T04:28:01.588Z,1021.83
2017-05-17T04:29:02.224Z,1021.93
2017-05-17T04:30:02.865Z,1021.90
2017-05-17T04:31:03.657Z,1021.79
2017-05-17T04:32:04.300Z,1021.77
2017-05-17T04:33:04.942Z,1021.77
2017-05-17T04:34:05.580Z,1021.76
2017-05-17T04:35:06.224Z,1021.82
2017-05-17T04:36:06.866Z,1021.80
2017-05-17T04:37:07.506Z,1021.81
2017-05-17T04:38:08.149Z,1021.80
2017-05-17T04:39:08.791Z,1021.72
2017-05-17T04:40:09.634Z,1021.72
2017-05-17T04:41:10.274Z,1021.69
2017-05-17T04:42:10.916Z,1021.79
2017-05-17T04:43:11.557Z,1021.75
2017-05-17T04:44:12.202Z,1021.79
2017-05-17T04:45:12.841Z,1021.75
2017-05-17T04:46:13.484Z,1021.80
2017-05-17T04:47:14.124Z,1021.80
2017-05-17T04:48:14.968Z,1021.68
2017-05-17T04:49:15.611Z,1021.65
2017-05-17T04:50:16.253Z,1021.69
2017-05-17T04:51:16.892Z,1021.71
2017-05-17T04:52:17.528Z,1021.73
2017-05-17T04:53:18.166Z,1021.85
2017-05-17T04:54:18.808Z,1021.94
2017-05-17T04:55:19.447Z,1021.87
2017-05-17T04:56:20.286Z,1021.85
2017-05-17T04:57:20.924Z,1021.78
2017-05-17T04:58:21.567Z,1021.87
2017-05-17T04:59:22.209Z,1021.78
2017-05-17T05:00:22.852Z,1021.80
2017-05-17T05:01:23.491Z,1021.85
2017-05-17T05:02:24.131Z,1021.89
2017-05-17T05:03:24.769Z,1021.89
2017-05-17T05:04:25.760Z,1021.87
2017-05-17T05:05:26.405Z,1021.76
2017-05-17T05:06:27.100Z,1021.73
2017-05-17T05:07:27.742Z,1021.75
2017-05-17T05:08:28.387Z,1021.72
2017-05-17T05:09:29.029Z,1021.72
2017-05-17T05:10:29.670Z,1021.79
2017-05-17T05:11:30.310Z,1021.91
2017-05-17T05:12:31.154Z,1022.01
2017-05-17T05:13:31.795Z,1022.00
2017-05-17T05:14:32.438Z,1021.93
2017-05-17T05:15:33.082Z,1021.89
2017-05-17T05:16:33.720Z,1021.87
2017-05-17T05:17:34.361Z,1021.96
2017-05-17T05:18:34.997Z,1021.90
2017-05-17T05:19:35.640Z,1021.84
2017-05-17T05:20:36.282Z,1021.79
2017-05-17T05:21:37.074Z,1021.84
2017-05-17T05:22:37.715Z,1021.79
2017-05-17T05:23:38.359Z,1021.69
2017-05-17T05:24:39.000Z,1021.57
2017-05-17T05:25:39.642Z,1021.59
2017-05-17T05:26:40.280Z,1021.69
2017-05-17T05:27:40.921Z,1021.85
2017-05-17T05:28:41.559Z,1021.83
2017-05-17T05:29:42.402Z,1021.85
2017-05-17T05:30:43.042Z,1021.80
2017-05-17T05:31:43.684Z,1021.98
2017-05-17T05:32:44.328Z,1022.06
2017-05-17T05:33:44.970Z,1022.12
2017-05-17T05:34:45.613Z,1022.20
2017-05-17T05:35:46.248Z,1022.19
2017-05-17T05:36:46.885Z,1022.23
2017-05-17T05:37:47.876Z,1022.16
2017-05-17T05:38:48.512Z,1022.11
2017-05-17T05:39:49.147Z,1022.18
2017-05-17T05:40:49.788Z,1022.25
2017-05-17T05:41:50.427Z,1022.37
2017-05-17T05:42:51.064Z,1022.34
2017-05-17T05:43:51.709Z,1022.37
2017-05-17T05:44:52.348Z,1022.26
2017-05-17T05:45:53.242Z,1022.18
2017-05-17T05:46:53.893Z,1022.20
2017-05-17T05:47:54.539Z,1022.17
2017-05-17T05:48:55.180Z,1022.11
2017-05-17T05:49:55.820Z,1022.09
2017-05-17T05:50:56.460Z,1022.04
2017-05-17T05:51:57.096Z,1022.01
2017-05-17T05:52:57.742Z,1021.97
2017-05-17T05:53:58.375Z,1021.96
2017-05-17T05:54:59.169Z,1021.92
2017-05-17T05:55:59.808Z,1021.92
2017-05-17T05:57:00.451Z,1021.86
2017-05-17T05:58:01.093Z,1021.87
2017-05-17T05:59:01.736Z,1021.86
2017-05-17T06:00:02.378Z,1021.95
2017-05-17T06:01:03.020Z,1021.90
2017-05-17T06:02:03.663Z,1021.98
2017-05-17T06:03:04.702Z,1021.95
2017-05-17T06:04:05.347Z,1021.97
2017-05-17T06:05:05.985Z,1021.95
2017-05-17T06:06:06.626Z,1021.97
2017-05-17T06:07:07.271Z,1021.87
2017-05-17T06:08:07.905Z,1021.79
2017-05-17T06:09:08.545Z,1021.81
2017-05-17T06:10:09.187Z,1021.80
2017-05-17T06:11:09.978Z,1021.67
2017-05-17T06:12:10.618Z,1021.71
2017-05-17T06:13:11.259Z,1021.72
2017-05-17T06:14:11.901Z,1021.67
2017-05-17T06:15:12.541Z,1021.65
2017-05-17T06:16:13.177Z,1021.63
2017-05-17T06:17:13.820Z,1021.60
2017-05-17T06:18:14.454Z,1021.55
2017-05-17T06:19:15.290Z,1021.63
2017-05-17T06:20:15.931Z,1021.59
2017-05-17T06:21:16.571Z,1021.68
2017-05-17T06:22:17.207Z,1021.72
2017-05-17T06:23:17.848Z,1021.73
2017-05-17T06:24:18.490Z,1021.67
2017-05-17T06:25:19.136Z,1021.53
2017-05-17T06:26:19.771Z,1021.52
2017-05-17T06:27:20.610Z,1021.48
2017-05-17T06:28:21.248Z,1021.48
2017-05-17T06:29:21.888Z,1021.44
2017-05-17T06:30:22.529Z,1021.52
2017-05-17T06:31:23.170Z,1021.57
2017-05-17T06:32:23.806Z,1021.50
2017-05-17T06:33:24.452Z,1021.56
2017-05-17T06:34:25.043Z,1021.50
2017-05-17T06:35:25.681Z,1021.51
2017-05-17T06:36:26.524Z,1021.49
2017-05-17T06:37:27.165Z,1021.48
2017-05-17T06:38:27.808Z,1021.48
2017-05-17T06:39:28.450Z,1021.39
2017-05-17T06:40:29.093Z,1021.43
2017-05-17T06:41:29.732Z,1021.38
2017-05-17T06:42:30.379Z,1021.42
2017-05-17T06:43:31.015Z,1021.38
2017-05-17T06:44:31.808Z,1021.37
2017-05-17T06:45:32.449Z,1021.45
2017-05-17T06:46:33.089Z,1021.42
2017-05-17T06:47:33.731Z,1021.30
2017-05-17T06:48:34.376Z,1021.31
2017-05-17T06:49:35.023Z,1021.31
2017-05-17T06:50:35.667Z,1021.34
2017-05-17T06:51:36.310Z,1021.31
2017-05-17T06:52:37.149Z,1021.29
2017-05-17T06:53:37.792Z,1021.30
2017-05-17T06:54:38.432Z,1021.31
2017-05-17T06:55:39.071Z,1021.27
2017-05-17T06:56:39.716Z,1021.23
2017-05-17T06:57:40.354Z,1021.26
2017-05-17T06:58:40.988Z,1021.19
2017-05-17T06:59:41.632Z,1021.18
2017-05-17T07:00:42.424Z,1021.16
2017-05-17T07:01:43.066Z,1021.10
2017-05-17T07:02:43.706Z,1021.06
2017-05-17T07:03:44.348Z,1021.16
2017-05-17T07:04:44.992Z,1021.09
2017-05-17T07:05:45.634Z,1021.11
2017-05-17T07:06:46.274Z,1021.08
2017-05-17T07:07:46.912Z,1021.00
2017-05-17T07:08:47.553Z,1021.00
2017-05-17T07:09:48.399Z,1020.92
2017-05-17T07:10:49.035Z,1020.88
2017-05-17T07:11:49.678Z,1020.92
2017-05-17T07:12:50.318Z,1020.91
2017-05-17T07:13:50.959Z,1020.99
2017-05-17T07:14:51.601Z,1020.92
2017-05-17T07:15:52.243Z,1020.91
2017-05-17T07:16:52.886Z,1020.94
2017-05-17T07:17:53.727Z,1020.94
2017-05-17T07:18:54.368Z,1021.00
2017-05-17T07:19:55.009Z,1021.00
2017-05-17T07:20:55.647Z,1020.98
2017-05-17T07:21:56.290Z,1020.98
2017-05-17T07:22:56.929Z,1020.95
2017-05-17T07:23:57.570Z,1020.98
2017-05-17T07:24:58.208Z,1020.98
2017-05-17T07:25:59.153Z,1021.00
2017-05-17T07:26:59.789Z,1021.02
2017-05-17T07:28:00.429Z,1021.05
2017-05-17T07:29:01.067Z,1021.04
2017-05-17T07:30:01.710Z,1021.07
2017-05-17T07:31:02.352Z,1021.17
2017-05-17T07:32:02.994Z,1021.34
2017-05-17T07:33:03.639Z,1021.56
2017-05-17T07:34:04.481Z,1021.80
2017-05-17T07:35:05.125Z,1021.80
2017-05-17T07:36:05.766Z,1021.71
2017-05-17T07:37:06.409Z,1021.74
2017-05-17T07:38:07.052Z,1021.70
2017-05-17T07:39:07.692Z,1021.82
2017-05-17T07:40:08.333Z,1021.78
2017-05-17T07:41:08.972Z,1021.77
2017-05-17T07:42:09.765Z,1021.79
2017-05-17T07:43:10.405Z,1021.78
2017-05-17T07:44:11.047Z,1021.80
2017-05-17T07:45:11.686Z,1021.69
2017-05-17T07:46:12.330Z,1021.71
2017-05-17T07:47:13.038Z,1021.70
2017-05-17T07:48:13.666Z,1021.75
2017-05-17T08:45:37.637Z,1022.04
2017-05-17T08:46:38.582Z,1022.07
2017-05-17T08:47:39.229Z,1022.01
2017-05-17T08:48:39.869Z,1021.98
2017-05-17T08:49:40.514Z,1021.97
2017-05-17T08:50:41.164Z,1021.95
2017-05-17T08:51:41.808Z,1021.96
2017-05-17T08:52:42.454Z,1022.09
2017-05-17T08:53:43.097Z,1022.13
2017-05-17T08:54:43.894Z,1022.06
2017-05-17T08:55:44.538Z,1022.15
2017-05-17T08:56:45.185Z,1022.10
2017-05-17T08:57:45.830Z,1022.09
2017-05-17T08:58:46.475Z,1022.13
2017-05-17T08:59:47.115Z,1022.11
2017-05-17T09:00:47.761Z,1022.13
2017-05-17T09:01:48.410Z,1022.11
2017-05-17T09:02:49.255Z,1022.04
2017-05-17T09:03:49.900Z,1022.10
2017-05-17T09:04:50.539Z,1022.11
2017-05-17T09:05:51.184Z,1022.09
2017-05-17T09:06:51.825Z,1022.08
2017-05-17T09:07:52.469Z,1022.07
2017-05-17T09:08:53.115Z,1022.12
2017-05-17T09:09:53.818Z,1022.13
2017-05-17T09:10:54.615Z,1022.12
2017-05-17T09:11:55.262Z,1022.17
2017-05-17T09:12:55.902Z,1022.08
2017-05-17T09:13:56.546Z,1022.16
2017-05-17T09:14:57.189Z,1022.30
2017-05-17T09:15:57.836Z,1022.27
2017-05-17T09:16:58.480Z,1022.25
2017-05-17T09:17:59.117Z,1022.25
2017-05-17T09:18:59.764Z,1022.30
2017-05-17T09:20:00.709Z,1022.26
2017-05-17T09:21:01.355Z,1022.38
2017-05-17T09:22:02.002Z,1022.41
2017-05-17T09:23:02.649Z,1022.39
2017-05-17T09:24:03.295Z,1022.35
2017-05-17T09:25:03.940Z,1022.42
2017-05-17T09:26:04.586Z,1022.42
2017-05-17T09:27:05.228Z,1022.45
2017-05-17T09:28:06.174Z,1022.35
2017-05-17T09:29:06.818Z,1022.35
2017-05-17T09:30:07.459Z,1022.37
2017-05-17T09:31:08.107Z,1022.31
2017-05-17T09:32:08.745Z,1022.27
2017-05-17T09:33:09.390Z,1022.26
2017-05-17T09:34:10.035Z,1022.21
2017-05-17T09:35:10.677Z,1022.31
2017-05-17T09:36:11.526Z,1022.31
2017-05-17T09:37:12.165Z,1022.39
2017-05-17T09:38:12.813Z,1022.40
2017-05-17T09:39:13.458Z,1022.38
2017-05-17T09:40:14.104Z,1022.54
2017-05-17T09:41:14.749Z,1022.42
2017-05-17T09:42:15.391Z,1022.47
2017-05-17T09:43:16.036Z,1022.41
2017-05-17T09:44:16.878Z,1022.43
2017-05-17T09:45:17.528Z,1022.44
2017-05-17T09:46:18.169Z,1022.49
2017-05-17T09:47:18.819Z,1022.36
2017-05-17T09:48:19.523Z,1022.26
2017-05-17T09:49:20.168Z,1022.29
2017-05-17T09:50:20.814Z,1022.30
2017-05-17T09:51:21.455Z,1022.33
2017-05-17T09:52:22.105Z,1022.18
2017-05-17T09:53:22.995Z,1022.19
2017-05-17T09:54:23.641Z,1022.19
2017-05-17T09:55:24.287Z,1022.21
2017-05-17T09:56:24.933Z,1022.24
2017-05-17T09:57:25.581Z,1022.19
2017-05-17T09:58:26.225Z,1022.24
2017-05-17T09:59:26.874Z,1022.21
2017-05-17T10:00:27.521Z,1022.23
2017-05-17T10:01:28.320Z,1022.25
2017-05-17T10:02:28.968Z,1022.28
2017-05-17T10:03:29.616Z,1022.30
2017-05-17T10:04:30.262Z,1022.37
2017-05-17T10:05:30.904Z,1022.28
2017-05-17T10:06:31.551Z,1022.36
2017-05-17T10:07:32.200Z,1022.28
2017-05-17T10:08:32.844Z,1022.27
2017-05-17T10:09:33.789Z,1022.19
2017-05-17T10:10:34.437Z,1022.21
2017-05-17T10:11:35.083Z,1022.23
2017-05-17T10:12:35.731Z,1022.19
2017-05-17T10:13:36.379Z,1022.26
2017-05-17T10:14:37.034Z,1022.22
2017-05-17T10:15:37.678Z,1022.11
2017-05-17T10:16:38.328Z,1022.16
2017-05-17T10:17:39.177Z,1022.16
2017-05-17T10:18:39.826Z,1022.24
2017-05-17T10:19:40.473Z,1022.19
2017-05-17T10:20:41.118Z,1022.13
2017-05-17T10:21:41.761Z,1022.19
2017-05-17T10:22:42.406Z,1022.22
2017-05-17T10:23:43.054Z,1022.23
2017-05-17T10:24:43.702Z,1022.22
2017-05-17T10:25:44.550Z,1022.30
2017-05-17T10:26:45.194Z,1022.24
2017-05-17T10:27:45.839Z,1022.27
2017-05-17T10:28:46.487Z,1022.26
2017-05-17T10:29:47.138Z,1022.26
2017-05-17T10:30:47.783Z,1022.25
2017-05-17T10:31:48.425Z,1022.24
2017-05-17T10:32:49.072Z,1022.22
2017-05-17T10:33:49.718Z,1022.32
2017-05-17T10:34:50.512Z,1022.30
2017-05-17T10:35:51.157Z,1022.38
2017-05-17T10:36:51.806Z,1022.36
2017-05-17T10:37:52.440Z,1022.37
2017-05-17T10:38:53.089Z,1022.33
2017-05-17T10:39:53.739Z,1022.34
2017-05-17T10:40:54.382Z,1022.48
2017-05-17T10:41:55.031Z,1022.31
2017-05-17T10:42:55.882Z,1022.35
2017-05-17T10:43:56.530Z,1022.39
2017-05-17T10:44:57.179Z,1022.42
2017-05-17T10:45:57.826Z,1022.46
2017-05-17T10:46:58.425Z,1022.38
2017-05-17T10:47:59.073Z,1022.43
2017-05-17T10:48:59.712Z,1022.44
2017-05-17T10:50:00.361Z,1022.47
2017-05-17T10:51:01.306Z,1022.49
2017-05-17T10:52:01.956Z,1022.43
2017-05-17T10:53:02.600Z,1022.52
2017-05-17T10:54:03.247Z,1022.53
2017-05-17T10:55:03.898Z,1022.56
2017-05-17T10:56:04.547Z,1022.67
2017-05-17T10:57:05.192Z,1022.60
2017-05-17T10:58:05.842Z,1022.50
2017-05-17T10:59:06.687Z,1022.64
2017-05-17T11:00:07.336Z,1022.69
2017-05-17T11:01:07.986Z,1022.67
2017-05-17T11:02:08.633Z,1022.87
2017-05-17T11:03:09.282Z,1022.62
2017-05-17T11:04:09.931Z,1022.67
2017-05-17T11:05:10.580Z,1022.65
2017-05-17T11:06:11.229Z,1022.71
2017-05-17T11:07:11.884Z,1022.75
2017-05-17T11:08:12.781Z,1022.71
2017-05-17T11:09:13.434Z,1022.69
2017-05-17T11:10:14.082Z,1022.62
2017-05-17T11:11:14.732Z,1022.78
2017-05-17T11:12:15.378Z,1022.83
2017-05-17T11:13:16.027Z,1022.68
2017-05-17T11:14:16.676Z,1022.77
2017-05-17T11:15:17.325Z,1022.73
2017-05-17T11:16:18.173Z,1022.79
2017-05-17T11:17:18.825Z,1022.74
2017-05-17T11:18:19.478Z,1022.83
2017-05-17T11:19:20.125Z,1022.73
2017-05-17T11:20:20.771Z,1022.76
2017-05-17T11:21:21.420Z,1022.86
2017-05-17T11:22:22.068Z,1022.84
2017-05-17T11:23:22.714Z,1022.77
2017-05-17T11:24:23.558Z,1022.72
2017-05-17T11:25:24.208Z,1022.76
2017-05-17T11:26:24.860Z,1022.67
2017-05-17T11:27:25.512Z,1022.71
2017-05-17T11:28:26.164Z,1022.67
2017-05-17T11:29:26.812Z,1022.67
2017-05-17T11:30:27.462Z,1022.72
2017-05-17T11:31:28.111Z,1022.58
2017-05-17T11:32:29.005Z,1022.62
2017-05-17T11:33:29.656Z,1022.63
2017-05-17T11:34:30.306Z,1022.68
2017-05-17T11:35:30.956Z,1022.59
2017-05-17T11:36:31.605Z,1022.60
2017-05-17T11:37:32.253Z,1022.64
2017-05-17T11:38:32.899Z,1022.62
2017-05-17T11:39:33.549Z,1022.67
2017-05-17T11:40:34.299Z,1022.56
2017-05-17T11:41:34.947Z,1022.61
2017-05-17T11:42:35.602Z,1022.69
2017-05-17T11:43:36.251Z,1022.66
2017-05-17T11:44:36.900Z,1022.54
2017-05-17T11:45:37.554Z,1022.56
2017-05-17T11:46:38.200Z,1022.56
2017-05-17T11:47:38.848Z,1022.56
2017-05-17T11:48:39.493Z,1022.62
2017-05-17T11:49:40.393Z,1022.56
2017-05-17T11:50:41.371Z,1022.58
2017-05-17T11:51:42.017Z,1022.57
2017-05-17T11:52:42.666Z,1022.58
2017-05-17T11:53:43.317Z,1022.63
2017-05-17T11:54:43.968Z,1022.64
2017-05-17T11:55:44.613Z,1022.62
2017-05-17T11:56:45.265Z,1022.58
2017-05-17T11:57:46.483Z,1022.58
2017-05-17T11:58:47.131Z,1022.61
2017-05-17T11:59:47.773Z,1022.62
2017-05-17T12:00:48.425Z,1022.56
2017-05-17T12:01:49.076Z,1022.64
2017-05-17T12:02:49.726Z,1022.60
2017-05-17T12:03:50.376Z,1022.58
2017-05-17T12:04:51.025Z,1022.62
2017-05-17T12:05:51.925Z,1022.64
2017-05-17T12:06:52.568Z,1022.65
2017-05-17T12:07:53.217Z,1022.62
2017-05-17T12:08:53.868Z,1022.75
2017-05-17T12:09:54.516Z,1022.66
2017-05-17T12:10:55.167Z,1022.65
2017-05-17T12:11:55.814Z,1022.76
2017-05-17T12:12:56.465Z,1022.59
2017-05-17T12:13:57.312Z,1022.57
2017-05-17T12:14:57.962Z,1022.62
2017-05-17T12:15:58.608Z,1022.58
2017-05-17T12:16:59.255Z,1022.57
2017-05-17T12:17:59.904Z,1022.51
2017-05-17T12:19:00.554Z,1022.48
2017-05-17T12:20:01.207Z,1022.54
2017-05-17T12:21:01.852Z,1022.52
2017-05-17T12:22:02.654Z,1022.51
2017-05-17T12:23:03.297Z,1022.49
2017-05-17T12:24:03.947Z,1022.54
2017-05-17T12:25:04.599Z,1022.51
2017-05-17T12:26:05.250Z,1022.60
2017-05-17T12:27:05.899Z,1022.58
2017-05-17T12:28:06.547Z,1022.51
2017-05-17T12:29:07.197Z,1022.49
2017-05-17T12:30:07.847Z,1022.57
2017-05-17T12:31:08.699Z,1022.63
2017-05-17T12:32:09.349Z,1022.60
2017-05-17T12:33:09.997Z,1022.54
2017-05-17T12:34:10.648Z,1022.59
2017-05-17T12:35:11.293Z,1022.50
2017-05-17T12:36:11.947Z,1022.53
2017-05-17T12:37:12.595Z,1022.57
2017-05-17T12:38:13.245Z,1022.54
2017-05-17T12:39:14.197Z,1022.51
2017-05-17T12:40:14.850Z,1022.53
2017-05-17T12:41:15.496Z,1022.52
2017-05-17T12:42:16.148Z,1022.43
2017-05-17T12:43:16.803Z,1022.51
2017-05-17T12:44:17.452Z,1022.40
2017-05-17T12:45:18.097Z,1022.44
2017-05-17T12:46:18.805Z,1022.57
2017-05-17T12:47:19.655Z,1022.53
2017-05-17T12:48:20.306Z,1022.58
2017-05-17T12:49:20.952Z,1022.54
2017-05-17T12:50:21.602Z,1022.57
2017-05-17T12:51:22.248Z,1022.57
2017-05-17T12:52:22.898Z,1022.54
2017-05-17T12:53:23.545Z,1022.60
2017-05-17T12:54:24.194Z,1022.58
2017-05-17T12:55:25.089Z,1022.55
2017-05-17T12:56:25.738Z,1022.50
2017-05-17T12:57:26.391Z,1022.58
2017-05-17T12:58:27.039Z,1022.56
2017-05-17T12:59:27.631Z,1022.56
2017-05-17T13:00:28.284Z,1022.57
2017-05-17T13:01:28.884Z,1022.62
2017-05-17T13:02:29.534Z,1022.70
2017-05-17T13:03:30.503Z,1022.65
2017-05-17T13:04:31.451Z,1022.66
2017-05-17T13:05:32.099Z,1022.56
2017-05-17T13:06:32.747Z,1022.62
2017-05-17T13:07:33.392Z,1022.58
2017-05-17T13:08:34.044Z,1022.47
2017-05-17T13:09:34.749Z,1022.50